sensor_id;sensor_type;location;lat;lon;timestamp;P1;durP1;ratioP1;P2;durP2;ratioP2
17361;SDS011;8798;51.938;4.348;2024-01-06T00:01:33;5.50;;;2.73;;
17361;SDS011;8798;51.938;4.348;2024-01-06T00:04:01;4.90;;;2.77;;
17361;SDS011;8798;51.938;4.348;2024-01-06T00:06:31;5.47;;;2.90;;
17361;SDS011;8798;51.938;4.348;2024-01-06T00:08:59;3.97;;;2.40;;
17361;SDS011;8798;51.938;4.348;2024-01-06T00:11:27;4.97;;;2.87;;
17361;SDS011;8798;51.938;4.348;2024-01-06T00:13:55;5.33;;;2.33;;
17361;SDS011;8798;51.938;4.348;2024-01-06T00:16:23;5.83;;;2.40;;
17361;SDS011;8798;51.938;4.348;2024-01-06T00:18:55;4.37;;;2.70;;
17361;SDS011;8798;51.938;4.348;2024-01-06T00:21:23;6.33;;;2.67;;
17361;SDS011;8798;51.938;4.348;2024-01-06T00:23:52;7.90;;;2.60;;
17361;SDS011;8798;51.938;4.348;2024-01-06T00:26:22;6.80;;;2.70;;
17361;SDS011;8798;51.938;4.348;2024-01-06T00:28:51;4.40;;;2.60;;
17361;SDS011;8798;51.938;4.348;2024-01-06T00:31:19;5.83;;;2.60;;
17361;SDS011;8798;51.938;4.348;2024-01-06T00:33:47;4.07;;;2.30;;
17361;SDS011;8798;51.938;4.348;2024-01-06T00:36:15;3.90;;;2.50;;
17361;SDS011;8798;51.938;4.348;2024-01-06T00:38:44;8.40;;;2.37;;
17361;SDS011;8798;51.938;4.348;2024-01-06T00:41:14;3.97;;;2.53;;
17361;SDS011;8798;51.938;4.348;2024-01-06T00:43:45;6.70;;;2.50;;
17361;SDS011;8798;51.938;4.348;2024-01-06T00:46:13;5.13;;;2.40;;
17361;SDS011;8798;51.938;4.348;2024-01-06T00:48:42;4.87;;;2.43;;
17361;SDS011;8798;51.938;4.348;2024-01-06T00:51:10;3.43;;;2.23;;
17361;SDS011;8798;51.938;4.348;2024-01-06T00:53:38;4.47;;;2.40;;
17361;SDS011;8798;51.938;4.348;2024-01-06T00:56:06;3.33;;;2.03;;
17361;SDS011;8798;51.938;4.348;2024-01-06T00:58:36;6.43;;;3.27;;
17361;SDS011;8798;51.938;4.348;2024-01-06T01:01:04;7.03;;;2.67;;
17361;SDS011;8798;51.938;4.348;2024-01-06T01:03:32;5.23;;;2.47;;
17361;SDS011;8798;51.938;4.348;2024-01-06T01:06:01;4.20;;;2.47;;
17361;SDS011;8798;51.938;4.348;2024-01-06T01:08:29;6.17;;;2.80;;
17361;SDS011;8798;51.938;4.348;2024-01-06T01:10:57;5.77;;;2.53;;
17361;SDS011;8798;51.938;4.348;2024-01-06T01:13:25;6.87;;;3.23;;
17361;SDS011;8798;51.938;4.348;2024-01-06T01:15:55;5.70;;;2.77;;
17361;SDS011;8798;51.938;4.348;2024-01-06T01:18:23;7.27;;;2.83;;
17361;SDS011;8798;51.938;4.348;2024-01-06T01:20:52;5.50;;;2.80;;
17361;SDS011;8798;51.938;4.348;2024-01-06T01:23:20;7.70;;;2.60;;
17361;SDS011;8798;51.938;4.348;2024-01-06T01:25:48;4.17;;;2.63;;
17361;SDS011;8798;51.938;4.348;2024-01-06T01:28:16;5.53;;;2.47;;
17361;SDS011;8798;51.938;4.348;2024-01-06T01:30:45;6.37;;;2.90;;
17361;SDS011;8798;51.938;4.348;2024-01-06T01:33:16;5.17;;;2.73;;
17361;SDS011;8798;51.938;4.348;2024-01-06T01:35:44;4.27;;;2.40;;
17361;SDS011;8798;51.938;4.348;2024-01-06T01:38:13;5.00;;;2.67;;
17361;SDS011;8798;51.938;4.348;2024-01-06T01:40:41;4.33;;;2.27;;
17361;SDS011;8798;51.938;4.348;2024-01-06T01:43:15;5.87;;;2.40;;
17361;SDS011;8798;51.938;4.348;2024-01-06T01:45:44;5.47;;;1.50;;
17361;SDS011;8798;51.938;4.348;2024-01-06T01:48:17;6.17;;;1.90;;
17361;SDS011;8798;51.938;4.348;2024-01-06T01:50:46;6.50;;;1.60;;
17361;SDS011;8798;51.938;4.348;2024-01-06T01:53:14;3.50;;;1.47;;
17361;SDS011;8798;51.938;4.348;2024-01-06T01:55:43;2.83;;;0.90;;
17361;SDS011;8798;51.938;4.348;2024-01-06T01:58:12;0.80;;;0.80;;
17361;SDS011;8798;51.938;4.348;2024-01-06T02:00:42;1.63;;;0.70;;
17361;SDS011;8798;51.938;4.348;2024-01-06T02:03:13;5.63;;;0.67;;
17361;SDS011;8798;51.938;4.348;2024-01-06T02:05:43;1.63;;;0.73;;
17361;SDS011;8798;51.938;4.348;2024-01-06T02:08:11;1.40;;;0.60;;
17361;SDS011;8798;51.938;4.348;2024-01-06T02:10:39;1.83;;;0.80;;
17361;SDS011;8798;51.938;4.348;2024-01-06T02:13:08;3.07;;;0.60;;
17361;SDS011;8798;51.938;4.348;2024-01-06T02:15:37;2.37;;;0.80;;
17361;SDS011;8798;51.938;4.348;2024-01-06T02:18:06;3.47;;;0.70;;
17361;SDS011;8798;51.938;4.348;2024-01-06T02:20:35;2.10;;;0.77;;
17361;SDS011;8798;51.938;4.348;2024-01-06T02:23:06;1.90;;;0.70;;
17361;SDS011;8798;51.938;4.348;2024-01-06T02:25:34;2.30;;;0.80;;
17361;SDS011;8798;51.938;4.348;2024-01-06T02:28:02;1.07;;;0.90;;
17361;SDS011;8798;51.938;4.348;2024-01-06T02:30:31;3.00;;;1.20;;
17361;SDS011;8798;51.938;4.348;2024-01-06T02:32:59;2.17;;;1.03;;
17361;SDS011;8798;51.938;4.348;2024-01-06T02:35:28;2.63;;;1.13;;
17361;SDS011;8798;51.938;4.348;2024-01-06T02:37:56;1.47;;;1.23;;
17361;SDS011;8798;51.938;4.348;2024-01-06T02:40:28;4.73;;;1.50;;
17361;SDS011;8798;51.938;4.348;2024-01-06T02:42:56;2.30;;;1.40;;
17361;SDS011;8798;51.938;4.348;2024-01-06T02:45:24;3.67;;;1.57;;
17361;SDS011;8798;51.938;4.348;2024-01-06T02:47:52;3.00;;;1.57;;
17361;SDS011;8798;51.938;4.348;2024-01-06T02:50:21;4.23;;;1.80;;
17361;SDS011;8798;51.938;4.348;2024-01-06T02:52:49;4.07;;;1.77;;
17361;SDS011;8798;51.938;4.348;2024-01-06T02:55:17;3.60;;;1.73;;
17361;SDS011;8798;51.938;4.348;2024-01-06T02:57:46;3.97;;;2.00;;
17361;SDS011;8798;51.938;4.348;2024-01-06T03:00:15;4.17;;;1.97;;
17361;SDS011;8798;51.938;4.348;2024-01-06T03:02:43;3.73;;;1.87;;
17361;SDS011;8798;51.938;4.348;2024-01-06T03:05:11;7.13;;;2.40;;
17361;SDS011;8798;51.938;4.348;2024-01-06T03:07:39;5.57;;;2.50;;
17361;SDS011;8798;51.938;4.348;2024-01-06T03:10:08;5.10;;;2.20;;
17361;SDS011;8798;51.938;4.348;2024-01-06T03:12:36;3.57;;;2.70;;
17361;SDS011;8798;51.938;4.348;2024-01-06T03:15:06;4.40;;;2.50;;
17361;SDS011;8798;51.938;4.348;2024-01-06T03:17:35;4.70;;;2.40;;
17361;SDS011;8798;51.938;4.348;2024-01-06T03:20:03;2.97;;;2.30;;
17361;SDS011;8798;51.938;4.348;2024-01-06T03:22:35;5.53;;;2.43;;
17361;SDS011;8798;51.938;4.348;2024-01-06T03:25:05;4.07;;;2.30;;
17361;SDS011;8798;51.938;4.348;2024-01-06T03:27:35;7.33;;;2.63;;
17361;SDS011;8798;51.938;4.348;2024-01-06T03:30:04;4.83;;;2.70;;
17361;SDS011;8798;51.938;4.348;2024-01-06T03:32:35;3.67;;;2.60;;
17361;SDS011;8798;51.938;4.348;2024-01-06T03:35:04;3.20;;;2.40;;
17361;SDS011;8798;51.938;4.348;2024-01-06T03:37:33;4.30;;;2.53;;
17361;SDS011;8798;51.938;4.348;2024-01-06T03:40:02;4.87;;;2.40;;
17361;SDS011;8798;51.938;4.348;2024-01-06T03:42:32;4.77;;;2.60;;
17361;SDS011;8798;51.938;4.348;2024-01-06T03:45:00;4.27;;;2.63;;
17361;SDS011;8798;51.938;4.348;2024-01-06T03:47:30;4.70;;;2.70;;
17361;SDS011;8798;51.938;4.348;2024-01-06T03:49:58;4.23;;;2.43;;
17361;SDS011;8798;51.938;4.348;2024-01-06T03:52:26;5.80;;;2.27;;
17361;SDS011;8798;51.938;4.348;2024-01-06T03:54:54;5.00;;;2.67;;
17361;SDS011;8798;51.938;4.348;2024-01-06T03:57:22;6.77;;;2.90;;
17361;SDS011;8798;51.938;4.348;2024-01-06T03:59:51;4.10;;;2.77;;
17361;SDS011;8798;51.938;4.348;2024-01-06T04:02:19;5.17;;;3.03;;
17361;SDS011;8798;51.938;4.348;2024-01-06T04:04:49;6.50;;;3.10;;
17361;SDS011;8798;51.938;4.348;2024-01-06T04:07:18;6.70;;;2.40;;
17361;SDS011;8798;51.938;4.348;2024-01-06T04:09:46;6.93;;;2.70;;
17361;SDS011;8798;51.938;4.348;2024-01-06T04:12:14;3.30;;;2.40;;
17361;SDS011;8798;51.938;4.348;2024-01-06T04:14:42;3.87;;;2.57;;
17361;SDS011;8798;51.938;4.348;2024-01-06T04:17:11;5.00;;;2.40;;
17361;SDS011;8798;51.938;4.348;2024-01-06T04:19:39;6.37;;;2.13;;
17361;SDS011;8798;51.938;4.348;2024-01-06T04:22:09;4.23;;;2.70;;
17361;SDS011;8798;51.938;4.348;2024-01-06T04:24:39;5.37;;;2.40;;
17361;SDS011;8798;51.938;4.348;2024-01-06T04:27:07;4.87;;;2.30;;
17361;SDS011;8798;51.938;4.348;2024-01-06T04:29:36;5.60;;;1.97;;
17361;SDS011;8798;51.938;4.348;2024-01-06T04:32:05;2.27;;;1.80;;
17361;SDS011;8798;51.938;4.348;2024-01-06T04:34:34;5.03;;;2.03;;
17361;SDS011;8798;51.938;4.348;2024-01-06T04:37:02;5.30;;;2.23;;
17361;SDS011;8798;51.938;4.348;2024-01-06T04:39:32;4.50;;;2.33;;
17361;SDS011;8798;51.938;4.348;2024-01-06T04:42:03;3.20;;;2.20;;
17361;SDS011;8798;51.938;4.348;2024-01-06T04:44:32;3.97;;;2.43;;
17361;SDS011;8798;51.938;4.348;2024-01-06T04:47:00;4.83;;;2.20;;
17361;SDS011;8798;51.938;4.348;2024-01-06T04:49:29;5.50;;;2.00;;
17361;SDS011;8798;51.938;4.348;2024-01-06T04:51:57;3.00;;;1.90;;
17361;SDS011;8798;51.938;4.348;2024-01-06T04:54:25;3.83;;;2.40;;
17361;SDS011;8798;51.938;4.348;2024-01-06T04:56:54;5.97;;;2.67;;
17361;SDS011;8798;51.938;4.348;2024-01-06T04:59:23;4.43;;;1.97;;
17361;SDS011;8798;51.938;4.348;2024-01-06T05:01:51;2.67;;;2.00;;
17361;SDS011;8798;51.938;4.348;2024-01-06T05:04:21;4.37;;;2.43;;
17361;SDS011;8798;51.938;4.348;2024-01-06T05:06:49;3.10;;;1.93;;
17361;SDS011;8798;51.938;4.348;2024-01-06T05:09:18;2.93;;;1.97;;
17361;SDS011;8798;51.938;4.348;2024-01-06T05:11:47;3.87;;;2.33;;
17361;SDS011;8798;51.938;4.348;2024-01-06T05:14:16;3.93;;;2.03;;
17361;SDS011;8798;51.938;4.348;2024-01-06T05:16:44;5.77;;;2.10;;
17361;SDS011;8798;51.938;4.348;2024-01-06T05:19:13;3.30;;;2.07;;
17361;SDS011;8798;51.938;4.348;2024-01-06T05:21:46;3.43;;;1.83;;
17361;SDS011;8798;51.938;4.348;2024-01-06T05:24:14;3.93;;;1.90;;
17361;SDS011;8798;51.938;4.348;2024-01-06T05:26:43;3.07;;;1.83;;
17361;SDS011;8798;51.938;4.348;2024-01-06T05:29:11;6.87;;;2.03;;
17361;SDS011;8798;51.938;4.348;2024-01-06T05:31:40;3.23;;;1.70;;
17361;SDS011;8798;51.938;4.348;2024-01-06T05:34:09;5.37;;;1.93;;
17361;SDS011;8798;51.938;4.348;2024-01-06T05:36:37;3.10;;;2.07;;
17361;SDS011;8798;51.938;4.348;2024-01-06T05:39:05;3.17;;;1.97;;
17361;SDS011;8798;51.938;4.348;2024-01-06T05:41:37;8.80;;;2.13;;
17361;SDS011;8798;51.938;4.348;2024-01-06T05:44:05;3.80;;;1.90;;
17361;SDS011;8798;51.938;4.348;2024-01-06T05:46:34;3.77;;;2.23;;
17361;SDS011;8798;51.938;4.348;2024-01-06T05:49:03;2.20;;;1.73;;
17361;SDS011;8798;51.938;4.348;2024-01-06T05:51:32;1.90;;;1.70;;
17361;SDS011;8798;51.938;4.348;2024-01-06T05:54:00;4.73;;;1.97;;
17361;SDS011;8798;51.938;4.348;2024-01-06T05:56:29;4.27;;;2.20;;
17361;SDS011;8798;51.938;4.348;2024-01-06T05:58:57;2.87;;;1.77;;
17361;SDS011;8798;51.938;4.348;2024-01-06T06:01:25;3.07;;;1.77;;
17361;SDS011;8798;51.938;4.348;2024-01-06T06:03:53;5.67;;;1.90;;
17361;SDS011;8798;51.938;4.348;2024-01-06T06:06:23;3.27;;;1.70;;
17361;SDS011;8798;51.938;4.348;2024-01-06T06:08:51;4.47;;;2.50;;
17361;SDS011;8798;51.938;4.348;2024-01-06T06:11:19;4.27;;;1.53;;
17361;SDS011;8798;51.938;4.348;2024-01-06T06:13:47;2.83;;;1.63;;
17361;SDS011;8798;51.938;4.348;2024-01-06T06:16:16;2.10;;;1.50;;
17361;SDS011;8798;51.938;4.348;2024-01-06T06:22:36;3.63;;;1.60;;
17361;SDS011;8798;51.938;4.348;2024-01-06T06:25:04;3.60;;;1.63;;
17361;SDS011;8798;51.938;4.348;2024-01-06T06:27:34;2.77;;;1.47;;
17361;SDS011;8798;51.938;4.348;2024-01-06T06:30:03;3.83;;;1.67;;
17361;SDS011;8798;51.938;4.348;2024-01-06T06:32:32;3.53;;;1.60;;
17361;SDS011;8798;51.938;4.348;2024-01-06T06:35:01;2.67;;;1.43;;
17361;SDS011;8798;51.938;4.348;2024-01-06T06:37:29;3.00;;;1.43;;
17361;SDS011;8798;51.938;4.348;2024-01-06T06:39:59;4.63;;;1.73;;
17361;SDS011;8798;51.938;4.348;2024-01-06T06:42:28;3.67;;;1.70;;
17361;SDS011;8798;51.938;4.348;2024-01-06T06:44:56;4.03;;;1.63;;
17361;SDS011;8798;51.938;4.348;2024-01-06T06:47:24;3.97;;;1.70;;
17361;SDS011;8798;51.938;4.348;2024-01-06T06:49:52;5.00;;;1.80;;
17361;SDS011;8798;51.938;4.348;2024-01-06T06:52:20;5.13;;;1.30;;
17361;SDS011;8798;51.938;4.348;2024-01-06T06:54:49;4.17;;;1.53;;
17361;SDS011;8798;51.938;4.348;2024-01-06T06:57:20;3.70;;;1.93;;
17361;SDS011;8798;51.938;4.348;2024-01-06T06:59:48;3.27;;;1.77;;
17361;SDS011;8798;51.938;4.348;2024-01-06T07:02:17;4.20;;;2.17;;
17361;SDS011;8798;51.938;4.348;2024-01-06T07:04:45;3.60;;;2.00;;
17361;SDS011;8798;51.938;4.348;2024-01-06T07:07:13;4.93;;;1.97;;
17361;SDS011;8798;51.938;4.348;2024-01-06T07:09:41;3.40;;;2.07;;
17361;SDS011;8798;51.938;4.348;2024-01-06T07:12:13;5.47;;;2.47;;
17361;SDS011;8798;51.938;4.348;2024-01-06T07:14:42;3.77;;;2.30;;
17361;SDS011;8798;51.938;4.348;2024-01-06T07:17:11;3.10;;;2.07;;
17361;SDS011;8798;51.938;4.348;2024-01-06T07:19:39;5.53;;;2.10;;
17361;SDS011;8798;51.938;4.348;2024-01-06T07:22:07;2.47;;;2.00;;
17361;SDS011;8798;51.938;4.348;2024-01-06T07:24:35;2.60;;;2.00;;
17361;SDS011;8798;51.938;4.348;2024-01-06T07:27:03;2.83;;;1.97;;
17361;SDS011;8798;51.938;4.348;2024-01-06T07:29:31;2.63;;;2.30;;
17361;SDS011;8798;51.938;4.348;2024-01-06T07:32:01;2.97;;;2.23;;
17361;SDS011;8798;51.938;4.348;2024-01-06T07:34:29;4.23;;;2.27;;
17361;SDS011;8798;51.938;4.348;2024-01-06T07:36:58;3.10;;;2.27;;
17361;SDS011;8798;51.938;4.348;2024-01-06T07:39:26;4.83;;;2.03;;
17361;SDS011;8798;51.938;4.348;2024-01-06T07:41:54;3.57;;;2.20;;
17361;SDS011;8798;51.938;4.348;2024-01-06T07:44:23;3.33;;;2.00;;
17361;SDS011;8798;51.938;4.348;2024-01-06T07:46:52;2.37;;;1.87;;
17361;SDS011;8798;51.938;4.348;2024-01-06T07:49:21;2.80;;;1.87;;
17361;SDS011;8798;51.938;4.348;2024-01-06T07:51:50;5.40;;;2.50;;
17361;SDS011;8798;51.938;4.348;2024-01-06T07:54:18;3.90;;;2.40;;
17361;SDS011;8798;51.938;4.348;2024-01-06T07:56:47;4.63;;;2.20;;
17361;SDS011;8798;51.938;4.348;2024-01-06T07:59:15;2.40;;;2.10;;
17361;SDS011;8798;51.938;4.348;2024-01-06T08:01:43;2.97;;;2.07;;
17361;SDS011;8798;51.938;4.348;2024-01-06T08:04:12;2.93;;;2.10;;
17361;SDS011;8798;51.938;4.348;2024-01-06T08:06:42;5.60;;;2.23;;
17361;SDS011;8798;51.938;4.348;2024-01-06T08:09:10;2.30;;;1.83;;
17361;SDS011;8798;51.938;4.348;2024-01-06T08:11:38;2.00;;;1.57;;
17361;SDS011;8798;51.938;4.348;2024-01-06T08:14:12;2.63;;;1.70;;
17361;SDS011;8798;51.938;4.348;2024-01-06T08:16:40;5.27;;;2.00;;
17361;SDS011;8798;51.938;4.348;2024-01-06T08:19:09;5.13;;;1.97;;
17361;SDS011;8798;51.938;4.348;2024-01-06T08:21:38;3.03;;;1.73;;
17361;SDS011;8798;51.938;4.348;2024-01-06T08:24:08;3.83;;;1.50;;
17361;SDS011;8798;51.938;4.348;2024-01-06T08:26:36;2.97;;;1.90;;
17361;SDS011;8798;51.938;4.348;2024-01-06T08:29:04;4.07;;;2.27;;
17361;SDS011;8798;51.938;4.348;2024-01-06T08:31:32;2.97;;;1.97;;
17361;SDS011;8798;51.938;4.348;2024-01-06T08:34:01;4.70;;;2.10;;
17361;SDS011;8798;51.938;4.348;2024-01-06T08:36:29;3.27;;;2.23;;
17361;SDS011;8798;51.938;4.348;2024-01-06T08:38:57;7.43;;;2.13;;
17361;SDS011;8798;51.938;4.348;2024-01-06T08:41:27;3.73;;;2.03;;
17361;SDS011;8798;51.938;4.348;2024-01-06T08:43:56;4.90;;;2.23;;
17361;SDS011;8798;51.938;4.348;2024-01-06T08:46:24;4.20;;;2.20;;
17361;SDS011;8798;51.938;4.348;2024-01-06T08:48:52;5.83;;;2.20;;
17361;SDS011;8798;51.938;4.348;2024-01-06T08:51:21;2.53;;;1.70;;
17361;SDS011;8798;51.938;4.348;2024-01-06T08:53:50;2.47;;;1.80;;
17361;SDS011;8798;51.938;4.348;2024-01-06T08:56:20;3.57;;;1.83;;
17361;SDS011;8798;51.938;4.348;2024-01-06T08:58:49;6.70;;;1.90;;
17361;SDS011;8798;51.938;4.348;2024-01-06T09:01:18;3.93;;;1.67;;
17361;SDS011;8798;51.938;4.348;2024-01-06T09:03:47;3.63;;;1.87;;
17361;SDS011;8798;51.938;4.348;2024-01-06T09:06:16;4.33;;;2.23;;
17361;SDS011;8798;51.938;4.348;2024-01-06T09:08:45;3.53;;;1.47;;
17361;SDS011;8798;51.938;4.348;2024-01-06T09:11:13;2.63;;;1.57;;
17361;SDS011;8798;51.938;4.348;2024-01-06T09:13:41;4.53;;;1.93;;
17361;SDS011;8798;51.938;4.348;2024-01-06T09:16:11;4.03;;;1.80;;
17361;SDS011;8798;51.938;4.348;2024-01-06T09:18:40;2.40;;;1.70;;
17361;SDS011;8798;51.938;4.348;2024-01-06T09:21:09;2.53;;;1.60;;
17361;SDS011;8798;51.938;4.348;2024-01-06T09:23:37;4.03;;;1.60;;
17361;SDS011;8798;51.938;4.348;2024-01-06T09:26:05;1.77;;;1.40;;
17361;SDS011;8798;51.938;4.348;2024-01-06T09:28:43;2.93;;;1.50;;
17361;SDS011;8798;51.938;4.348;2024-01-06T09:31:13;3.83;;;1.50;;
17361;SDS011;8798;51.938;4.348;2024-01-06T09:33:41;2.37;;;1.50;;
17361;SDS011;8798;51.938;4.348;2024-01-06T09:36:11;3.33;;;1.70;;
17361;SDS011;8798;51.938;4.348;2024-01-06T09:38:40;2.63;;;1.57;;
17361;SDS011;8798;51.938;4.348;2024-01-06T09:41:08;2.33;;;1.67;;
17361;SDS011;8798;51.938;4.348;2024-01-06T09:43:37;2.33;;;1.60;;
17361;SDS011;8798;51.938;4.348;2024-01-06T09:46:06;1.47;;;1.20;;
17361;SDS011;8798;51.938;4.348;2024-01-06T09:48:46;3.60;;;1.47;;
17361;SDS011;8798;51.938;4.348;2024-01-06T09:51:19;3.23;;;1.67;;
17361;SDS011;8798;51.938;4.348;2024-01-06T09:53:48;4.33;;;1.60;;
17361;SDS011;8798;51.938;4.348;2024-01-06T09:56:20;3.70;;;1.60;;
17361;SDS011;8798;51.938;4.348;2024-01-06T09:58:49;5.10;;;1.87;;
17361;SDS011;8798;51.938;4.348;2024-01-06T10:01:18;3.63;;;1.70;;
17361;SDS011;8798;51.938;4.348;2024-01-06T10:03:48;4.17;;;1.50;;
17361;SDS011;8798;51.938;4.348;2024-01-06T10:06:17;5.67;;;1.63;;
17361;SDS011;8798;51.938;4.348;2024-01-06T11:55:35;2.07;;;1.63;;
17361;SDS011;8798;51.938;4.348;2024-01-06T11:58:16;3.37;;;1.43;;
17361;SDS011;8798;51.938;4.348;2024-01-06T12:00:57;2.40;;;1.40;;
17361;SDS011;8798;51.938;4.348;2024-01-06T12:03:30;2.83;;;1.60;;
17361;SDS011;8798;51.938;4.348;2024-01-06T12:06:01;2.53;;;1.57;;
17361;SDS011;8798;51.938;4.348;2024-01-06T12:08:33;4.07;;;1.80;;
17361;SDS011;8798;51.938;4.348;2024-01-06T12:11:05;1.40;;;1.30;;
17361;SDS011;8798;51.938;4.348;2024-01-06T12:13:44;4.37;;;1.70;;
17361;SDS011;8798;51.938;4.348;2024-01-06T12:16:12;3.00;;;1.53;;
17361;SDS011;8798;51.938;4.348;2024-01-06T12:18:40;2.97;;;1.60;;
17361;SDS011;8798;51.938;4.348;2024-01-06T12:21:12;4.00;;;1.50;;
17361;SDS011;8798;51.938;4.348;2024-01-06T12:23:46;6.53;;;1.73;;
17361;SDS011;8798;51.938;4.348;2024-01-06T12:26:15;7.40;;;1.50;;
17361;SDS011;8798;51.938;4.348;2024-01-06T12:28:46;2.80;;;1.30;;
17361;SDS011;8798;51.938;4.348;2024-01-06T12:31:15;1.87;;;1.27;;
17361;SDS011;8798;51.938;4.348;2024-01-06T12:33:43;1.60;;;1.13;;
17361;SDS011;8798;51.938;4.348;2024-01-06T12:36:13;4.13;;;1.30;;
17361;SDS011;8798;51.938;4.348;2024-01-06T12:38:53;5.67;;;1.40;;
17361;SDS011;8798;51.938;4.348;2024-01-06T12:41:24;3.40;;;1.40;;
17361;SDS011;8798;51.938;4.348;2024-01-06T12:43:52;2.83;;;1.27;;
17361;SDS011;8798;51.938;4.348;2024-01-06T12:46:21;4.57;;;1.10;;
17361;SDS011;8798;51.938;4.348;2024-01-06T12:48:56;2.37;;;1.10;;
17361;SDS011;8798;51.938;4.348;2024-01-06T12:51:26;2.43;;;1.30;;
17361;SDS011;8798;51.938;4.348;2024-01-06T12:53:59;4.47;;;1.37;;
17361;SDS011;8798;51.938;4.348;2024-01-06T12:56:30;1.33;;;1.00;;
17361;SDS011;8798;51.938;4.348;2024-01-06T12:58:58;1.87;;;1.00;;
17361;SDS011;8798;51.938;4.348;2024-01-06T13:01:33;1.17;;;0.90;;
17361;SDS011;8798;51.938;4.348;2024-01-06T13:04:03;3.30;;;1.10;;
17361;SDS011;8798;51.938;4.348;2024-01-06T13:06:31;6.70;;;1.80;;
17361;SDS011;8798;51.938;4.348;2024-01-06T13:09:14;2.17;;;1.00;;
17361;SDS011;8798;51.938;4.348;2024-01-06T13:11:45;4.63;;;1.00;;
17361;SDS011;8798;51.938;4.348;2024-01-06T13:14:18;1.70;;;1.03;;
17361;SDS011;8798;51.938;4.348;2024-01-06T13:16:46;5.40;;;1.10;;
17361;SDS011;8798;51.938;4.348;2024-01-06T13:19:25;2.47;;;1.00;;
17361;SDS011;8798;51.938;4.348;2024-01-06T13:21:53;0.80;;;0.80;;
17361;SDS011;8798;51.938;4.348;2024-01-06T13:24:23;1.53;;;0.90;;
17361;SDS011;8798;51.938;4.348;2024-01-06T13:26:53;0.77;;;0.70;;
17361;SDS011;8798;51.938;4.348;2024-01-06T13:29:21;1.90;;;0.77;;
17361;SDS011;8798;51.938;4.348;2024-01-06T13:31:55;1.63;;;0.80;;
17361;SDS011;8798;51.938;4.348;2024-01-06T13:34:36;2.53;;;0.80;;
17361;SDS011;8798;51.938;4.348;2024-01-06T13:37:13;1.23;;;0.90;;
17361;SDS011;8798;51.938;4.348;2024-01-06T13:39:42;1.50;;;0.87;;
17361;SDS011;8798;51.938;4.348;2024-01-06T13:42:15;0.80;;;0.70;;
17361;SDS011;8798;51.938;4.348;2024-01-06T13:44:45;4.43;;;1.13;;
17361;SDS011;8798;51.938;4.348;2024-01-06T13:47:14;1.07;;;0.77;;
17361;SDS011;8798;51.938;4.348;2024-01-06T13:49:46;1.53;;;0.90;;
17361;SDS011;8798;51.938;4.348;2024-01-06T13:52:24;1.50;;;0.87;;
17361;SDS011;8798;51.938;4.348;2024-01-06T13:54:53;3.30;;;0.80;;
17361;SDS011;8798;51.938;4.348;2024-01-06T13:57:26;1.73;;;1.03;;
17361;SDS011;8798;51.938;4.348;2024-01-06T13:59:54;1.37;;;0.80;;
17361;SDS011;8798;51.938;4.348;2024-01-06T14:02:24;2.00;;;0.87;;
17361;SDS011;8798;51.938;4.348;2024-01-06T14:04:52;1.97;;;0.93;;
17361;SDS011;8798;51.938;4.348;2024-01-06T14:07:21;1.30;;;1.00;;
17361;SDS011;8798;51.938;4.348;2024-01-06T14:09:51;2.97;;;1.60;;
17361;SDS011;8798;51.938;4.348;2024-01-06T14:12:23;2.80;;;1.10;;
17361;SDS011;8798;51.938;4.348;2024-01-06T14:14:53;2.30;;;1.00;;
17361;SDS011;8798;51.938;4.348;2024-01-06T14:17:26;1.90;;;0.90;;
17361;SDS011;8798;51.938;4.348;2024-01-06T14:19:58;2.63;;;1.00;;
17361;SDS011;8798;51.938;4.348;2024-01-06T14:22:33;3.80;;;0.97;;
17361;SDS011;8798;51.938;4.348;2024-01-06T14:25:02;3.03;;;1.20;;
17361;SDS011;8798;51.938;4.348;2024-01-06T14:27:37;1.97;;;0.77;;
17361;SDS011;8798;51.938;4.348;2024-01-06T14:30:14;3.13;;;1.00;;
17361;SDS011;8798;51.938;4.348;2024-01-06T14:32:45;1.00;;;0.90;;
17361;SDS011;8798;51.938;4.348;2024-01-06T14:35:14;4.70;;;1.60;;
17361;SDS011;8798;51.938;4.348;2024-01-06T14:37:45;1.50;;;1.03;;
17361;SDS011;8798;51.938;4.348;2024-01-06T14:40:13;2.87;;;0.90;;
17361;SDS011;8798;51.938;4.348;2024-01-06T14:42:43;2.40;;;1.30;;
17361;SDS011;8798;51.938;4.348;2024-01-06T14:45:11;1.90;;;0.90;;
17361;SDS011;8798;51.938;4.348;2024-01-06T14:47:43;4.57;;;1.67;;
17361;SDS011;8798;51.938;4.348;2024-01-06T14:50:15;2.43;;;1.00;;
17361;SDS011;8798;51.938;4.348;2024-01-06T14:52:44;1.43;;;0.80;;
17361;SDS011;8798;51.938;4.348;2024-01-06T14:55:12;2.50;;;0.93;;
17361;SDS011;8798;51.938;4.348;2024-01-06T14:57:43;1.77;;;1.00;;
17361;SDS011;8798;51.938;4.348;2024-01-06T15:00:17;2.93;;;0.87;;
17361;SDS011;8798;51.938;4.348;2024-01-06T15:02:46;8.37;;;1.50;;
17361;SDS011;8798;51.938;4.348;2024-01-06T15:05:24;8.40;;;1.40;;
17361;SDS011;8798;51.938;4.348;2024-01-06T15:07:58;2.93;;;0.90;;
17361;SDS011;8798;51.938;4.348;2024-01-06T15:10:32;1.80;;;0.80;;
17361;SDS011;8798;51.938;4.348;2024-01-06T15:13:09;2.10;;;1.23;;
17361;SDS011;8798;51.938;4.348;2024-01-06T15:15:45;2.70;;;1.70;;
17361;SDS011;8798;51.938;4.348;2024-01-06T15:18:22;2.80;;;1.63;;
17361;SDS011;8798;51.938;4.348;2024-01-06T15:20:53;2.50;;;1.27;;
17361;SDS011;8798;51.938;4.348;2024-01-06T15:23:26;3.03;;;1.57;;
17361;SDS011;8798;51.938;4.348;2024-01-06T15:25:56;3.67;;;1.87;;
17361;SDS011;8798;51.938;4.348;2024-01-06T15:28:25;2.17;;;1.20;;
17361;SDS011;8798;51.938;4.348;2024-01-06T15:30:55;2.20;;;1.20;;
17361;SDS011;8798;51.938;4.348;2024-01-06T15:33:24;3.77;;;1.97;;
17361;SDS011;8798;51.938;4.348;2024-01-06T15:35:54;1.97;;;1.00;;
17361;SDS011;8798;51.938;4.348;2024-01-06T15:38:23;2.83;;;1.30;;
17361;SDS011;8798;51.938;4.348;2024-01-06T15:40:53;4.03;;;1.17;;
17361;SDS011;8798;51.938;4.348;2024-01-06T15:43:21;2.10;;;1.40;;
17361;SDS011;8798;51.938;4.348;2024-01-06T15:45:51;5.50;;;2.90;;
17361;SDS011;8798;51.938;4.348;2024-01-06T15:48:24;3.63;;;1.90;;
17361;SDS011;8798;51.938;4.348;2024-01-06T15:50:54;4.13;;;1.93;;
17361;SDS011;8798;51.938;4.348;2024-01-06T15:53:23;3.53;;;1.17;;
17361;SDS011;8798;51.938;4.348;2024-01-06T15:55:51;1.67;;;1.30;;
17361;SDS011;8798;51.938;4.348;2024-01-06T15:58:20;1.40;;;1.00;;
17361;SDS011;8798;51.938;4.348;2024-01-06T16:00:55;2.07;;;1.10;;
17361;SDS011;8798;51.938;4.348;2024-01-06T16:03:26;2.90;;;1.30;;
17361;SDS011;8798;51.938;4.348;2024-01-06T16:05:54;3.83;;;1.83;;
17361;SDS011;8798;51.938;4.348;2024-01-06T16:08:25;11.83;;;2.90;;
17361;SDS011;8798;51.938;4.348;2024-01-06T16:10:56;4.40;;;1.53;;
17361;SDS011;8798;51.938;4.348;2024-01-06T16:13:26;4.33;;;1.60;;
17361;SDS011;8798;51.938;4.348;2024-01-06T16:15:56;3.33;;;1.20;;
17361;SDS011;8798;51.938;4.348;2024-01-06T16:18:26;6.20;;;1.50;;
17361;SDS011;8798;51.938;4.348;2024-01-06T16:20:55;1.40;;;1.30;;
17361;SDS011;8798;51.938;4.348;2024-01-06T16:23:29;4.13;;;1.70;;
17361;SDS011;8798;51.938;4.348;2024-01-06T16:25:57;2.67;;;1.40;;
17361;SDS011;8798;51.938;4.348;2024-01-06T16:28:33;1.90;;;1.10;;
17361;SDS011;8798;51.938;4.348;2024-01-06T16:31:09;2.40;;;1.37;;
17361;SDS011;8798;51.938;4.348;2024-01-06T16:33:41;5.23;;;2.63;;
17361;SDS011;8798;51.938;4.348;2024-01-06T16:36:18;2.33;;;1.70;;
17361;SDS011;8798;51.938;4.348;2024-01-06T16:38:52;4.43;;;2.20;;
17361;SDS011;8798;51.938;4.348;2024-01-06T16:41:25;2.57;;;1.80;;
17361;SDS011;8798;51.938;4.348;2024-01-06T16:43:54;3.87;;;1.53;;
17361;SDS011;8798;51.938;4.348;2024-01-06T16:46:26;1.90;;;1.20;;
17361;SDS011;8798;51.938;4.348;2024-01-06T16:48:54;2.83;;;1.40;;
17361;SDS011;8798;51.938;4.348;2024-01-06T16:51:22;2.03;;;1.43;;
17361;SDS011;8798;51.938;4.348;2024-01-06T16:53:51;3.30;;;1.33;;
17361;SDS011;8798;51.938;4.348;2024-01-06T16:56:22;1.43;;;1.03;;
17361;SDS011;8798;51.938;4.348;2024-01-06T16:58:56;4.23;;;1.40;;
17361;SDS011;8798;51.938;4.348;2024-01-06T17:01:26;2.77;;;1.17;;
17361;SDS011;8798;51.938;4.348;2024-01-06T17:03:55;2.67;;;1.40;;
17361;SDS011;8798;51.938;4.348;2024-01-06T17:06:25;4.90;;;1.80;;